sensor_id;sensor_type;location;lat;lon;timestamp;P1;durP1;ratioP1;P2;durP2;ratioP2
3831;SDS011;12460;42.662;23.288;2023-06-19T00:05:26;6.20;;;5.70;;
3831;SDS011;12460;42.662;23.288;2023-06-19T00:20:30;5.77;;;5.27;;
3831;SDS011;12460;42.662;23.288;2023-06-19T00:35:36;5.50;;;5.10;;
3831;SDS011;12460;42.662;23.288;2023-06-19T00:50:40;5.90;;;5.40;;
3831;SDS011;12460;42.662;23.288;2023-06-19T01:05:46;5.60;;;5.10;;
3831;SDS011;12460;42.662;23.288;2023-06-19T01:20:52;6.17;;;5.57;;
3831;SDS011;12460;42.662;23.288;2023-06-19T01:35:57;7.33;;;5.70;;
3831;SDS011;12460;42.662;23.288;2023-06-19T01:51:02;6.40;;;5.90;;
3831;SDS011;12460;42.662;23.288;2023-06-19T02:06:07;7.10;;;6.40;;
3831;SDS011;12460;42.662;23.288;2023-06-19T02:21:12;6.73;;;6.13;;
3831;SDS011;12460;42.662;23.288;2023-06-19T02:36:17;6.90;;;6.30;;
3831;SDS011;12460;42.662;23.288;2023-06-19T02:51:22;9.00;;;8.10;;
3831;SDS011;12460;42.662;23.288;2023-06-19T03:06:27;8.90;;;8.00;;
3831;SDS011;12460;42.662;23.288;2023-06-19T03:21:32;8.63;;;7.77;;
3831;SDS011;12460;42.662;23.288;2023-06-19T03:36:38;7.37;;;6.77;;
3831;SDS011;12460;42.662;23.288;2023-06-19T03:51:45;6.83;;;6.23;;
3831;SDS011;12460;42.662;23.288;2023-06-19T04:06:51;10.33;;;9.33;;
3831;SDS011;12460;42.662;23.288;2023-06-19T04:21:56;8.10;;;7.30;;
3831;SDS011;12460;42.662;23.288;2023-06-19T04:37:02;6.60;;;6.00;;
3831;SDS011;12460;42.662;23.288;2023-06-19T04:52:07;6.70;;;6.10;;
3831;SDS011;12460;42.662;23.288;2023-06-19T05:07:12;6.83;;;6.23;;
3831;SDS011;12460;42.662;23.288;2023-06-19T05:22:20;5.70;;;5.30;;
3831;SDS011;12460;42.662;23.288;2023-06-19T05:37:25;7.10;;;6.40;;
3831;SDS011;12460;42.662;23.288;2023-06-19T05:52:29;6.20;;;5.70;;
3831;SDS011;12460;42.662;23.288;2023-06-19T06:07:35;6.53;;;6.00;;
3831;SDS011;12460;42.662;23.288;2023-06-19T06:22:43;6.40;;;5.87;;
3831;SDS011;12460;42.662;23.288;2023-06-19T06:37:46;6.73;;;6.07;;
3831;SDS011;12460;42.662;23.288;2023-06-19T06:52:58;6.43;;;5.80;;
3831;SDS011;12460;42.662;23.288;2023-06-19T07:08:02;6.00;;;5.50;;
3831;SDS011;12460;42.662;23.288;2023-06-19T07:23:07;5.70;;;5.30;;
3831;SDS011;12460;42.662;23.288;2023-06-19T07:38:13;6.13;;;5.73;;
3831;SDS011;12460;42.662;23.288;2023-06-19T07:53:18;5.60;;;5.20;;
3831;SDS011;12460;42.662;23.288;2023-06-19T08:08:23;5.77;;;5.37;;
3831;SDS011;12460;42.662;23.288;2023-06-19T08:23:28;5.43;;;5.10;;
3831;SDS011;12460;42.662;23.288;2023-06-19T08:38:33;5.60;;;5.10;;
3831;SDS011;12460;42.662;23.288;2023-06-19T08:53:46;5.53;;;5.13;;
3831;SDS011;12460;42.662;23.288;2023-06-19T09:09:01;6.07;;;5.57;;
3831;SDS011;12460;42.662;23.288;2023-06-19T09:24:07;5.17;;;4.87;;
3831;SDS011;12460;42.662;23.288;2023-06-19T09:39:13;5.33;;;4.93;;
3831;SDS011;12460;42.662;23.288;2023-06-19T09:54:19;5.40;;;5.00;;
3831;SDS011;12460;42.662;23.288;2023-06-19T10:09:25;5.23;;;4.93;;
3831;SDS011;12460;42.662;23.288;2023-06-19T10:24:36;5.20;;;4.80;;
3831;SDS011;12460;42.662;23.288;2023-06-19T10:39:42;6.20;;;5.70;;
3831;SDS011;12460;42.662;23.288;2023-06-19T10:54:52;5.90;;;5.50;;
3831;SDS011;12460;42.662;23.288;2023-06-19T11:09:58;5.63;;;5.23;;
3831;SDS011;12460;42.662;23.288;2023-06-19T11:25:03;6.70;;;6.20;;
3831;SDS011;12460;42.662;23.288;2023-06-19T11:40:09;5.90;;;5.50;;
3831;SDS011;12460;42.662;23.288;2023-06-19T11:55:19;5.73;;;5.43;;
3831;SDS011;12460;42.662;23.288;2023-06-19T12:10:24;6.33;;;5.83;;
3831;SDS011;12460;42.662;23.288;2023-06-19T12:25:28;6.53;;;6.13;;
3831;SDS011;12460;42.662;23.288;2023-06-19T12:40:33;6.50;;;6.00;;
3831;SDS011;12460;42.662;23.288;2023-06-19T12:55:36;6.30;;;5.73;;
3831;SDS011;12460;42.662;23.288;2023-06-19T13:10:57;6.73;;;6.20;;
3831;SDS011;12460;42.662;23.288;2023-06-19T13:26:02;7.33;;;6.73;;
3831;SDS011;12460;42.662;23.288;2023-06-19T13:41:09;5.93;;;5.33;;
3831;SDS011;12460;42.662;23.288;2023-06-19T13:56:14;5.60;;;5.20;;
3831;SDS011;12460;42.662;23.288;2023-06-19T14:11:19;5.83;;;5.43;;
3831;SDS011;12460;42.662;23.288;2023-06-19T14:26:24;6.27;;;5.83;;
3831;SDS011;12460;42.662;23.288;2023-06-19T14:41:29;6.30;;;5.80;;
3831;SDS011;12460;42.662;23.288;2023-06-19T14:56:34;6.97;;;6.30;;
3831;SDS011;12460;42.662;23.288;2023-06-19T15:11:37;6.67;;;6.17;;
3831;SDS011;12460;42.662;23.288;2023-06-19T15:26:44;7.97;;;7.27;;
3831;SDS011;12460;42.662;23.288;2023-06-19T15:41:49;8.97;;;7.07;;
3831;SDS011;12460;42.662;23.288;2023-06-19T15:56:54;8.20;;;7.50;;
3831;SDS011;12460;42.662;23.288;2023-06-19T16:12:01;7.47;;;6.83;;
3831;SDS011;12460;42.662;23.288;2023-06-19T16:27:06;8.13;;;7.40;;
3831;SDS011;12460;42.662;23.288;2023-06-19T16:42:11;7.80;;;7.10;;
3831;SDS011;12460;42.662;23.288;2023-06-19T16:57:16;7.97;;;6.73;;
3831;SDS011;12460;42.662;23.288;2023-06-19T17:12:22;8.20;;;7.50;;
3831;SDS011;12460;42.662;23.288;2023-06-19T17:27:28;8.83;;;8.13;;
3831;SDS011;12460;42.662;23.288;2023-06-19T17:42:31;8.83;;;8.03;;
3831;SDS011;12460;42.662;23.288;2023-06-19T17:57:35;9.33;;;8.43;;
3831;SDS011;12460;42.662;23.288;2023-06-19T18:12:41;9.83;;;9.03;;
3831;SDS011;12460;42.662;23.288;2023-06-19T18:27:46;9.83;;;8.93;;
3831;SDS011;12460;42.662;23.288;2023-06-19T18:42:51;11.43;;;9.77;;
3831;SDS011;12460;42.662;23.288;2023-06-19T18:57:56;10.47;;;9.57;;
3831;SDS011;12460;42.662;23.288;2023-06-19T19:13:01;11.53;;;10.50;;
3831;SDS011;12460;42.662;23.288;2023-06-19T19:28:06;11.67;;;10.57;;
3831;SDS011;12460;42.662;23.288;2023-06-19T19:43:19;11.63;;;10.40;;
3831;SDS011;12460;42.662;23.288;2023-06-19T19:58:26;10.13;;;9.10;;
3831;SDS011;12460;42.662;23.288;2023-06-19T20:13:32;9.60;;;8.70;;
3831;SDS011;12460;42.662;23.288;2023-06-19T20:28:37;9.47;;;8.53;;
3831;SDS011;12460;42.662;23.288;2023-06-19T20:43:42;9.90;;;8.90;;
3831;SDS011;12460;42.662;23.288;2023-06-19T20:58:49;8.87;;;8.00;;
3831;SDS011;12460;42.662;23.288;2023-06-19T21:13:58;8.17;;;7.37;;
3831;SDS011;12460;42.662;23.288;2023-06-19T21:29:03;8.00;;;7.20;;
3831;SDS011;12460;42.662;23.288;2023-06-19T21:44:08;8.20;;;7.50;;
3831;SDS011;12460;42.662;23.288;2023-06-19T21:59:13;7.90;;;7.20;;
3831;SDS011;12460;42.662;23.288;2023-06-19T22:14:18;8.80;;;7.87;;
3831;SDS011;12460;42.662;23.288;2023-06-19T22:29:22;11.37;;;9.17;;
3831;SDS011;12460;42.662;23.288;2023-06-19T22:44:27;10.07;;;8.30;;
3831;SDS011;12460;42.662;23.288;2023-06-19T22:59:30;8.87;;;8.00;;
3831;SDS011;12460;42.662;23.288;2023-06-19T23:14:34;8.53;;;7.63;;
3831;SDS011;12460;42.662;23.288;2023-06-19T23:29:38;8.70;;;7.80;;
3831;SDS011;12460;42.662;23.288;2023-06-19T23:44:42;9.03;;;8.13;;
3831;SDS011;12460;42.662;23.288;2023-06-19T23:59:48;8.27;;;7.57;;
